createdAt,value
2023-01-08T00:01:17.033Z,5.80
2023-01-08T00:03:44.349Z,5.80
2023-01-08T00:06:15.341Z,5.80
2023-01-08T00:08:43.313Z,5.80
2023-01-08T00:11:11.497Z,5.80
2023-01-08T00:13:38.663Z,5.80
2023-01-08T00:16:10.388Z,5.80
2023-01-08T00:18:37.773Z,5.80
2023-01-08T00:21:05.998Z,5.80
2023-01-08T00:23:33.867Z,5.80
2023-01-08T00:26:08.164Z,5.80
2023-01-08T00:28:36.846Z,5.80
2023-01-08T00:31:06.441Z,5.80
2023-01-08T00:33:34.839Z,5.80
2023-01-08T00:36:08.358Z,5.80
2023-01-08T00:38:35.505Z,5.80
2023-01-08T00:41:02.867Z,5.80
2023-01-08T00:43:29.996Z,5.80
2023-01-08T00:45:57.226Z,5.80
2023-01-08T00:48:27.549Z,5.80
2023-01-08T00:50:55.489Z,5.80
2023-01-08T00:53:23.106Z,5.80
2023-01-08T00:55:50.375Z,5.80
2023-01-08T00:58:17.622Z,5.80
2023-01-08T01:00:44.740Z,5.80
2023-01-08T01:03:11.886Z,5.80
2023-01-08T01:05:39.004Z,5.80
2023-01-08T01:08:06.173Z,5.80
2023-01-08T01:10:33.298Z,5.90
2023-01-08T01:13:00.399Z,5.90
2023-01-08T01:15:27.505Z,5.90
2023-01-08T01:17:54.628Z,6.00
2023-01-08T01:20:23.733Z,6.00
2023-01-08T01:22:51.428Z,6.00
2023-01-08T01:25:18.561Z,6.00
2023-01-08T01:27:45.739Z,6.00
2023-01-08T01:30:13.059Z,6.00
2023-01-08T01:32:40.146Z,6.00
2023-01-08T01:35:07.907Z,6.00
2023-01-08T01:37:35.068Z,6.00
2023-01-08T01:40:02.797Z,6.00
2023-01-08T01:42:41.572Z,6.00
2023-01-08T01:45:22.589Z,6.00
2023-01-08T01:48:06.730Z,6.00
2023-01-08T01:50:44.353Z,6.00
2023-01-08T01:53:20.521Z,5.90
2023-01-08T01:55:48.970Z,5.90
2023-01-08T01:58:24.738Z,5.90
2023-01-08T02:00:54.376Z,5.90
2023-01-08T02:03:30.070Z,5.90
2023-01-08T02:06:23.728Z,5.90
2023-01-08T02:09:06.515Z,5.90
2023-01-08T02:11:48.957Z,5.90
2023-01-08T02:14:48.692Z,5.90
2023-01-08T02:17:38.567Z,5.90
2023-01-08T02:20:20.276Z,5.90
2023-01-08T02:23:18.514Z,5.90
2023-01-08T02:26:04.171Z,5.90
2023-01-08T02:28:38.046Z,5.90
2023-01-08T02:31:06.976Z,5.90
2023-01-08T02:33:34.404Z,5.90
2023-01-08T02:36:25.607Z,5.80
2023-01-08T02:39:47.072Z,5.90
2023-01-08T02:42:53.525Z,5.80
2023-01-08T02:45:48.332Z,5.80
2023-01-08T02:48:41.152Z,5.80
2023-01-08T02:51:43.848Z,5.80
2023-01-08T02:54:19.841Z,5.80
2023-01-08T02:56:55.822Z,5.90
2023-01-08T02:59:24.761Z,5.90
2023-01-08T03:01:53.187Z,5.90
2023-01-08T03:04:26.069Z,5.90
2023-01-08T03:06:53.501Z,5.80
2023-01-08T03:09:20.999Z,5.80
2023-01-08T03:12:18.684Z,5.80
2023-01-08T03:14:59.236Z,5.80
2023-01-08T03:17:42.875Z,5.80
2023-01-08T03:20:16.385Z,5.80
2023-01-08T03:22:49.453Z,5.80
2023-01-08T03:25:21.690Z,5.80
2023-01-08T03:27:56.869Z,5.80
2023-01-08T03:30:26.049Z,5.80
2023-01-08T03:32:57.296Z,5.80
2023-01-08T03:35:27.298Z,5.80
2023-01-08T03:38:07.065Z,5.80
2023-01-08T03:40:47.088Z,5.90
2023-01-08T03:43:14.524Z,5.90
2023-01-08T03:45:50.991Z,5.90
2023-01-08T03:48:21.539Z,5.90
2023-01-08T03:50:49.500Z,5.90
2023-01-08T03:53:16.687Z,5.90
2023-01-08T03:55:43.834Z,5.90
2023-01-08T03:58:10.991Z,6.00
2023-01-08T04:00:38.190Z,6.00
2023-01-08T04:03:06.097Z,6.00
2023-01-08T04:05:33.687Z,6.00
2023-01-08T04:08:00.883Z,6.10
2023-01-08T04:10:28.055Z,6.10
2023-01-08T04:12:55.110Z,6.10
2023-01-08T04:15:22.268Z,6.10
2023-01-08T04:17:49.371Z,6.10
2023-01-08T04:20:16.656Z,6.10
2023-01-08T04:22:43.786Z,6.10
2023-01-08T04:25:11.146Z,6.10
2023-01-08T04:27:38.253Z,6.10
2023-01-08T04:30:06.096Z,6.10
2023-01-08T04:32:33.182Z,6.10
2023-01-08T04:35:00.331Z,6.10
2023-01-08T04:37:27.439Z,6.10
2023-01-08T04:39:54.528Z,6.20
2023-01-08T04:42:21.603Z,6.30
2023-01-08T04:44:48.694Z,6.10
2023-01-08T04:47:15.781Z,6.10
2023-01-08T04:49:42.952Z,6.10
2023-01-08T04:52:10.017Z,6.20
2023-01-08T04:54:37.166Z,6.20
2023-01-08T04:57:04.371Z,6.10
2023-01-08T04:59:31.516Z,6.10
2023-01-08T05:01:59.294Z,6.10
2023-01-08T05:04:26.527Z,6.10
2023-01-08T05:06:53.598Z,6.10
2023-01-08T05:09:20.687Z,6.10
2023-01-08T05:11:47.899Z,6.00
2023-01-08T05:14:14.993Z,6.10
2023-01-08T05:16:42.220Z,6.10
2023-01-08T05:19:10.293Z,6.20
2023-01-08T05:21:37.545Z,6.20
2023-01-08T05:24:05.060Z,6.10
2023-01-08T05:26:32.588Z,6.20
2023-01-08T05:28:59.663Z,6.20
2023-01-08T05:31:27.061Z,6.20
2023-01-08T05:33:54.126Z,6.20
2023-01-08T05:36:21.193Z,6.20
2023-01-08T05:38:48.288Z,6.20
2023-01-08T05:41:15.464Z,6.20
2023-01-08T05:43:42.592Z,6.10
2023-01-08T05:46:09.689Z,6.10
2023-01-08T05:48:37.432Z,6.10
2023-01-08T05:51:05.650Z,6.10
2023-01-08T05:53:33.324Z,6.10
2023-01-08T05:56:03.802Z,6.10
2023-01-08T05:58:31.446Z,6.20
2023-01-08T06:01:05.579Z,6.20
2023-01-08T06:03:32.792Z,6.10
2023-01-08T06:06:06.045Z,6.10
2023-01-08T06:08:33.928Z,6.10
2023-01-08T06:11:04.135Z,6.10
2023-01-08T06:13:31.450Z,6.10
2023-01-08T06:16:00.427Z,6.10
2023-01-08T06:18:30.214Z,6.10
2023-01-08T06:20:57.368Z,6.10
2023-01-08T06:23:24.649Z,6.10
2023-01-08T06:25:57.234Z,6.10
2023-01-08T06:28:25.295Z,6.00
2023-01-08T06:30:52.651Z,6.10
2023-01-08T06:33:21.481Z,6.00
2023-01-08T06:35:49.181Z,6.10
2023-01-08T06:38:19.265Z,6.10
2023-01-08T06:40:47.900Z,6.10
2023-01-08T06:43:16.209Z,6.00
2023-01-08T06:45:43.333Z,6.00
2023-01-08T06:48:10.421Z,6.00
2023-01-08T06:50:37.540Z,6.10
2023-01-08T06:53:04.844Z,6.00
2023-01-08T06:55:31.918Z,5.90
2023-01-08T06:57:59.672Z,5.80
2023-01-08T07:00:27.523Z,5.80
2023-01-08T07:02:55.740Z,5.80
2023-01-08T07:05:23.964Z,5.80
2023-01-08T07:07:51.337Z,5.80
2023-01-08T07:10:20.012Z,5.70
2023-01-08T07:12:48.183Z,5.70
2023-01-08T07:15:16.153Z,5.60
2023-01-08T07:17:43.265Z,5.60
2023-01-08T07:20:10.980Z,5.60
2023-01-08T07:22:38.089Z,5.70
2023-01-08T07:25:05.771Z,5.70
2023-01-08T07:27:33.154Z,5.70
2023-01-08T07:30:00.273Z,5.70
2023-01-08T07:32:27.372Z,5.80
2023-01-08T07:34:54.779Z,5.80
2023-01-08T07:37:21.895Z,5.80
2023-01-08T07:39:48.986Z,5.80
2023-01-08T07:42:16.071Z,5.80
2023-01-08T07:44:43.154Z,5.80
2023-01-08T07:47:10.224Z,5.80
2023-01-08T07:49:37.289Z,5.80
2023-01-08T07:52:04.601Z,5.80
2023-01-08T07:54:31.672Z,5.80
2023-01-08T07:56:58.746Z,5.80
2023-01-08T07:59:25.838Z,5.80
2023-01-08T08:01:52.987Z,5.90
2023-01-08T08:04:20.317Z,5.80
2023-01-08T08:06:47.399Z,5.80
2023-01-08T08:09:14.522Z,5.80
2023-01-08T08:11:41.775Z,5.80
2023-01-08T08:14:09.023Z,5.80
2023-01-08T08:16:36.132Z,5.80
2023-01-08T08:19:03.839Z,5.80
2023-01-08T08:21:30.988Z,5.80
2023-01-08T08:23:58.400Z,5.90
2023-01-08T08:26:25.621Z,5.90
2023-01-08T08:28:52.748Z,5.90
2023-01-08T08:31:19.968Z,5.90
2023-01-08T08:33:47.147Z,6.00
2023-01-08T08:36:14.265Z,6.00
2023-01-08T08:38:41.403Z,6.00
2023-01-08T08:41:08.470Z,6.00
2023-01-08T08:43:35.607Z,6.00
2023-01-08T08:46:02.698Z,6.00
2023-01-08T08:48:29.769Z,6.10
2023-01-08T08:50:56.893Z,6.10
2023-01-08T08:53:25.501Z,6.10
2023-01-08T08:55:54.046Z,6.10
2023-01-08T08:58:21.115Z,6.10
2023-01-08T09:00:48.344Z,6.10
2023-01-08T09:03:16.638Z,6.10
2023-01-08T09:05:44.643Z,6.30
2023-01-08T09:08:13.025Z,6.20
2023-01-08T09:10:42.330Z,6.20
2023-01-08T09:13:10.362Z,6.20
2023-01-08T09:15:38.323Z,6.20
2023-01-08T09:18:05.652Z,6.30
2023-01-08T09:20:33.025Z,6.30
2023-01-08T09:23:01.462Z,6.30
2023-01-08T09:25:28.871Z,6.30
2023-01-08T09:28:04.795Z,6.30
2023-01-08T09:30:32.703Z,6.30
2023-01-08T09:33:03.103Z,6.30
2023-01-08T09:35:32.544Z,6.30
2023-01-08T09:38:00.196Z,6.30
2023-01-08T09:40:37.338Z,6.30
2023-01-08T09:43:06.241Z,6.30
2023-01-08T09:45:39.446Z,6.20
2023-01-08T09:48:15.208Z,6.20
2023-01-08T09:50:42.464Z,6.30
2023-01-08T09:53:16.651Z,6.30
2023-01-08T09:55:46.522Z,6.30
2023-01-08T09:58:41.546Z,6.30
2023-01-08T10:01:14.702Z,6.30
2023-01-08T10:03:54.686Z,6.20
2023-01-08T10:06:25.402Z,6.20
2023-01-08T10:08:53.225Z,6.10
2023-01-08T10:11:21.354Z,6.20
2023-01-08T10:13:57.338Z,6.10
2023-01-08T10:16:33.892Z,6.10
2023-01-08T10:19:03.912Z,6.20
2023-01-08T10:21:39.652Z,6.20
2023-01-08T10:24:07.953Z,6.20
2023-01-08T10:26:38.192Z,6.20
2023-01-08T10:29:20.793Z,6.30
2023-01-08T10:31:55.613Z,6.30
2023-01-08T10:34:38.958Z,6.30
2023-01-08T10:37:40.013Z,6.30
2023-01-08T10:40:44.339Z,6.30
2023-01-08T10:43:29.936Z,6.30
2023-01-08T10:46:04.164Z,6.30
2023-01-08T10:48:48.216Z,6.30
2023-01-08T10:51:21.084Z,6.30
2023-01-08T10:53:48.868Z,6.30
2023-01-08T10:56:18.898Z,6.40
2023-01-08T10:58:46.040Z,6.40
2023-01-08T11:01:19.183Z,6.40
2023-01-08T11:03:56.822Z,6.40
2023-01-08T11:06:28.853Z,6.40
2023-01-08T11:09:25.570Z,6.50
2023-01-08T11:11:52.788Z,6.50
2023-01-08T11:14:35.597Z,6.50
2023-01-08T11:17:11.650Z,6.50
2023-01-08T11:19:40.017Z,6.50
2023-01-08T11:22:25.317Z,6.60
2023-01-08T11:24:54.162Z,6.60
2023-01-08T11:27:44.332Z,6.60
2023-01-08T11:30:21.316Z,6.60
2023-01-08T11:33:16.829Z,6.60
2023-01-08T11:35:52.979Z,6.60
2023-01-08T11:38:20.233Z,6.70
2023-01-08T11:40:53.151Z,6.70
2023-01-08T11:43:47.430Z,6.70
2023-01-08T11:46:33.300Z,6.70
2023-01-08T11:49:51.143Z,6.70
2023-01-08T11:52:41.610Z,6.80
2023-01-08T11:55:50.708Z,6.80
2023-01-08T11:58:23.170Z,6.80
2023-01-08T12:01:46.182Z,6.80
2023-01-08T12:04:43.086Z,6.80
2023-01-08T12:07:50.008Z,6.80
2023-01-08T12:10:50.124Z,6.90
2023-01-08T12:13:50.952Z,6.90
2023-01-08T12:16:33.023Z,6.80
2023-01-08T12:19:28.380Z,6.90
2023-01-08T12:22:14.714Z,6.90
2023-01-08T12:25:19.363Z,6.90
2023-01-08T12:28:28.659Z,6.90
2023-01-08T12:31:30.561Z,6.90
2023-01-08T12:34:11.257Z,6.90
2023-01-08T12:36:46.066Z,6.90
2023-01-08T12:39:24.142Z,7.00
2023-01-08T12:41:56.568Z,7.00
2023-01-08T12:44:29.435Z,7.00
2023-01-08T12:47:04.305Z,7.00
2023-01-08T12:49:43.192Z,7.10
2023-01-08T12:52:36.725Z,7.00
2023-01-08T12:55:28.187Z,7.10
2023-01-08T12:58:11.156Z,7.10
2023-01-08T13:01:02.961Z,7.10
2023-01-08T13:03:33.156Z,7.10
2023-01-08T13:06:13.465Z,7.10
2023-01-08T13:08:47.214Z,7.20
2023-01-08T13:11:34.557Z,7.20
2023-01-08T13:14:10.754Z,7.20
2023-01-08T13:16:45.122Z,7.20
2023-01-08T13:19:34.916Z,7.20
2023-01-08T13:22:02.274Z,7.20
2023-01-08T13:24:41.199Z,7.20
2023-01-08T13:27:20.043Z,7.20
2023-01-08T13:29:50.147Z,7.20
2023-01-08T13:32:47.799Z,7.20
2023-01-08T13:35:14.936Z,7.30
2023-01-08T13:37:44.210Z,7.30
2023-01-08T13:40:45.558Z,7.30
2023-01-08T13:43:17.875Z,7.30
2023-01-08T13:46:08.934Z,7.30
2023-01-08T13:48:48.001Z,7.30
2023-01-08T13:51:46.729Z,7.30
2023-01-08T13:54:14.095Z,7.30
2023-01-08T13:56:44.162Z,7.30
2023-01-08T13:59:42.524Z,7.30
2023-01-08T14:02:28.307Z,7.30
2023-01-08T14:04:56.685Z,7.40
2023-01-08T14:07:24.951Z,7.40
2023-01-08T14:09:52.881Z,7.40
2023-01-08T14:12:25.085Z,7.40
2023-01-08T14:14:59.112Z,7.40
2023-01-08T14:17:31.792Z,7.40
2023-01-08T14:19:59.911Z,7.40
2023-01-08T14:22:34.930Z,7.40
2023-01-08T14:25:07.698Z,7.40
2023-01-08T14:27:35.597Z,7.50
2023-01-08T14:30:03.118Z,7.50
2023-01-08T14:32:31.295Z,7.50
2023-01-08T14:35:01.275Z,7.50
2023-01-08T14:37:28.396Z,7.50
2023-01-08T14:39:55.512Z,7.50
2023-01-08T14:42:44.283Z,7.50
2023-01-08T14:45:27.446Z,7.60
2023-01-08T14:48:18.176Z,7.60
2023-01-08T14:51:12.739Z,7.60
2023-01-08T14:53:50.656Z,7.60
2023-01-08T14:56:30.528Z,7.60
2023-01-08T14:58:58.908Z,7.60
2023-01-08T15:01:30.362Z,7.60
2023-01-08T15:04:09.333Z,7.60
2023-01-08T15:06:36.493Z,7.60
2023-01-08T15:09:21.128Z,7.60
2023-01-08T15:11:58.878Z,7.50
2023-01-08T15:14:30.918Z,7.60
2023-01-08T15:17:08.045Z,7.60
2023-01-08T15:19:46.612Z,7.60
2023-01-08T15:22:20.504Z,7.60
2023-01-08T15:25:03.711Z,7.60
2023-01-08T15:27:31.588Z,7.60
2023-01-08T15:30:03.997Z,7.60
2023-01-08T15:32:37.601Z,7.50
2023-01-08T15:35:18.877Z,7.50
2023-01-08T15:37:46.148Z,7.50
2023-01-08T15:40:13.399Z,7.50
2023-01-08T15:42:59.435Z,7.50
2023-01-08T15:45:29.777Z,7.50
2023-01-08T15:47:57.052Z,7.50
2023-01-08T15:50:27.048Z,7.50
2023-01-08T15:52:57.461Z,7.50
2023-01-08T15:55:25.768Z,7.50
2023-01-08T15:57:53.022Z,7.50
2023-01-08T16:00:22.594Z,7.50
2023-01-08T16:02:52.627Z,7.50
2023-01-08T16:05:23.166Z,7.50
2023-01-08T16:07:50.475Z,7.50
2023-01-08T16:10:18.832Z,7.50
2023-01-08T16:12:46.086Z,7.50
2023-01-08T16:15:15.321Z,7.50
2023-01-08T16:17:43.052Z,7.50
2023-01-08T16:20:12.847Z,7.50
2023-01-08T16:22:40.213Z,7.50
2023-01-08T16:25:09.343Z,7.50
2023-01-08T16:27:38.375Z,7.50
2023-01-08T16:30:08.344Z,7.40
2023-01-08T16:32:35.731Z,7.50
2023-01-08T16:35:02.824Z,7.40
2023-01-08T16:37:31.737Z,7.40
2023-01-08T16:39:58.793Z,7.40
2023-01-08T16:42:25.990Z,7.40
2023-01-08T16:44:53.180Z,7.40
2023-01-08T16:47:20.265Z,7.40
2023-01-08T16:49:50.286Z,7.40
2023-01-08T16:52:18.341Z,7.40
2023-01-08T16:54:46.124Z,7.40
2023-01-08T16:57:13.465Z,7.40
2023-01-08T16:59:40.541Z,7.40
2023-01-08T17:02:09.024Z,7.40
2023-01-08T17:04:36.229Z,7.50
2023-01-08T17:07:04.240Z,7.50
2023-01-08T17:09:31.569Z,7.50
2023-01-08T17:11:58.679Z,7.40
2023-01-08T17:14:25.850Z,7.50
2023-01-08T17:16:52.940Z,7.50
2023-01-08T17:19:20.770Z,7.50
2023-01-08T17:21:50.601Z,7.50
2023-01-08T17:24:17.847Z,7.40
2023-01-08T17:26:45.084Z,7.40
2023-01-08T17:29:12.344Z,7.40
2023-01-08T17:31:40.219Z,7.40
2023-01-08T17:34:12.479Z,7.40
2023-01-08T17:36:39.641Z,7.50
2023-01-08T17:39:07.297Z,7.40
2023-01-08T17:41:54.373Z,7.50
2023-01-08T17:44:21.903Z,7.40
2023-01-08T17:46:49.278Z,7.40
2023-01-08T17:49:17.767Z,7.50
2023-01-08T17:51:46.008Z,7.50
2023-01-08T17:54:15.618Z,7.50
2023-01-08T17:56:43.824Z,7.50
2023-01-08T17:59:17.614Z,7.40
2023-01-08T18:01:45.572Z,7.50
2023-01-08T18:04:14.331Z,7.50
2023-01-08T18:06:42.966Z,7.40
2023-01-08T18:09:12.457Z,7.50
2023-01-08T18:11:42.104Z,7.50
2023-01-08T18:14:13.061Z,7.50
2023-01-08T18:16:45.436Z,7.40
2023-01-08T18:19:13.965Z,7.50
2023-01-08T18:21:41.194Z,7.40
2023-01-08T18:24:09.017Z,7.40
2023-01-08T18:26:36.147Z,7.50
2023-01-08T18:29:04.228Z,7.50
2023-01-08T18:31:31.392Z,7.40
2023-01-08T18:33:58.713Z,7.40
2023-01-08T18:36:26.534Z,7.40
2023-01-08T18:38:53.640Z,7.40
2023-01-08T18:41:39.505Z,7.40
2023-01-08T18:44:09.195Z,7.40
2023-01-08T18:46:37.437Z,7.40
2023-01-08T18:49:05.314Z,7.40
2023-01-08T18:51:32.970Z,7.40
2023-01-08T18:54:00.238Z,7.40
2023-01-08T18:56:31.903Z,7.40
2023-01-08T18:58:59.676Z,7.40
2023-01-08T19:01:27.337Z,7.40
2023-01-08T19:03:55.866Z,7.30
2023-01-08T19:06:23.621Z,7.40
2023-01-08T19:08:50.735Z,7.30
2023-01-08T19:11:18.160Z,7.30
2023-01-08T19:13:45.643Z,7.30
2023-01-08T19:16:14.416Z,7.30
2023-01-08T19:18:41.786Z,7.30
2023-01-08T19:21:11.236Z,7.30
2023-01-08T19:23:38.347Z,7.30
2023-01-08T19:26:07.709Z,7.30
2023-01-08T19:28:35.222Z,7.30
2023-01-08T19:31:03.015Z,7.30
2023-01-08T19:33:30.167Z,7.30
2023-01-08T19:36:03.224Z,7.30
2023-01-08T19:38:30.475Z,7.30
2023-01-08T19:41:00.229Z,7.30
2023-01-08T19:43:42.693Z,7.30
2023-01-08T19:46:15.424Z,7.20
2023-01-08T19:48:44.032Z,7.20
2023-01-08T19:51:12.781Z,7.20
2023-01-08T19:53:40.396Z,7.20
2023-01-08T19:56:11.493Z,7.20
2023-01-08T19:58:38.999Z,7.20
2023-01-08T20:01:24.053Z,7.20
2023-01-08T20:03:51.485Z,7.20
2023-01-08T20:06:23.763Z,7.10
2023-01-08T20:08:56.119Z,7.10
2023-01-08T20:11:24.431Z,7.10
2023-01-08T20:13:52.263Z,6.90
2023-01-08T20:16:22.296Z,7.10
2023-01-08T20:18:49.987Z,7.10
2023-01-08T20:21:24.099Z,7.10
2023-01-08T20:24:14.376Z,7.10
2023-01-08T20:26:46.552Z,7.10
2023-01-08T20:29:15.966Z,7.10
2023-01-08T20:31:44.273Z,7.10
2023-01-08T20:34:15.603Z,7.10
2023-01-08T20:36:44.684Z,7.10
2023-01-08T20:39:15.933Z,7.10
2023-01-08T20:41:50.330Z,7.10
2023-01-08T20:44:28.587Z,7.10
2023-01-08T20:46:55.721Z,7.10
2023-01-08T20:49:25.247Z,7.00
2023-01-08T20:51:59.144Z,7.00
2023-01-08T20:54:28.848Z,6.90
2023-01-08T20:56:58.408Z,6.90
2023-01-08T20:59:27.169Z,6.90
2023-01-08T21:01:54.635Z,6.90
2023-01-08T21:04:22.445Z,6.90
2023-01-08T21:06:49.698Z,6.90
2023-01-08T21:09:17.878Z,6.90
2023-01-08T21:11:45.056Z,6.90
2023-01-08T21:14:12.450Z,6.80
2023-01-08T21:16:40.729Z,6.90
2023-01-08T21:19:11.672Z,6.80
2023-01-08T21:21:40.661Z,6.80
2023-01-08T21:24:11.534Z,6.80
2023-01-08T21:26:39.338Z,6.80
2023-01-08T21:29:08.900Z,6.80
2023-01-08T21:31:38.322Z,6.80
2023-01-08T21:34:08.898Z,6.80
2023-01-08T21:36:37.029Z,6.80
2023-01-08T21:39:04.342Z,6.80
2023-01-08T21:41:50.247Z,6.80
2023-01-08T21:44:45.675Z,6.80
2023-01-08T21:47:18.603Z,6.70
2023-01-08T21:49:46.771Z,6.80
2023-01-08T21:52:33.208Z,6.70
2023-01-08T21:55:01.466Z,6.70
2023-01-08T21:57:28.906Z,6.70
2023-01-08T21:59:56.832Z,6.70
2023-01-08T22:02:25.053Z,6.70
2023-01-08T22:04:55.446Z,6.70
2023-01-08T22:07:22.990Z,6.70
2023-01-08T22:09:50.093Z,6.60
2023-01-08T22:12:17.590Z,6.60
2023-01-08T22:14:44.774Z,6.60
2023-01-08T22:17:12.251Z,6.60
2023-01-08T22:19:40.373Z,6.60
2023-01-08T22:22:10.495Z,6.60
2023-01-08T22:24:39.043Z,6.60
2023-01-08T22:27:08.044Z,6.60
2023-01-08T22:29:36.726Z,6.60
2023-01-08T22:32:04.895Z,6.50
2023-01-08T22:34:34.291Z,6.50
2023-01-08T22:37:01.832Z,6.50
2023-01-08T22:39:29.027Z,6.50
2023-01-08T22:41:56.086Z,6.40
2023-01-08T22:44:23.269Z,6.50
2023-01-08T22:46:50.392Z,6.40
2023-01-08T22:49:17.704Z,6.40
2023-01-08T22:51:44.884Z,6.40
2023-01-08T22:54:17.359Z,6.40
2023-01-08T22:56:44.637Z,6.40
2023-01-08T22:59:11.739Z,6.30
2023-01-08T23:01:38.855Z,6.20
2023-01-08T23:04:06.360Z,6.30
2023-01-08T23:06:33.800Z,6.20
2023-01-08T23:09:01.266Z,6.20
2023-01-08T23:11:28.820Z,6.20
2023-01-08T23:13:56.244Z,6.30
2023-01-08T23:16:25.489Z,6.30
2023-01-08T23:18:54.346Z,6.30
2023-01-08T23:21:24.439Z,6.30
2023-01-08T23:23:52.276Z,6.30
2023-01-08T23:26:26.528Z,6.30
2023-01-08T23:28:55.081Z,6.30
2023-01-08T23:31:29.903Z,6.30
2023-01-08T23:33:57.977Z,6.30
2023-01-08T23:36:25.917Z,6.30
2023-01-08T23:38:55.914Z,6.30
2023-01-08T23:41:33.735Z,6.20
2023-01-08T23:44:07.761Z,6.30
2023-01-08T23:46:35.713Z,6.20
2023-01-08T23:49:02.897Z,6.20
2023-01-08T23:51:30.276Z,6.20
2023-01-08T23:53:57.409Z,6.20
2023-01-08T23:56:24.551Z,6.10
2023-01-08T23:58:51.701Z,6.10
